sensor_id;sensor_type;location;lat;lon;timestamp;P1;durP1;ratioP1;P2;durP2;ratioP2
17886;SDS011;9069;52.044;7.472;2024-02-04T00:02:16;17.40;;;9.45;;
17886;SDS011;9069;52.044;7.472;2024-02-04T00:04:44;13.43;;;9.35;;
17886;SDS011;9069;52.044;7.472;2024-02-04T00:07:11;18.05;;;10.02;;
17886;SDS011;9069;52.044;7.472;2024-02-04T00:09:37;19.33;;;9.32;;
17886;SDS011;9069;52.044;7.472;2024-02-04T00:12:04;19.58;;;8.88;;
17886;SDS011;9069;52.044;7.472;2024-02-04T00:14:32;17.73;;;9.57;;
17886;SDS011;9069;52.044;7.472;2024-02-04T00:16:59;15.18;;;9.70;;
17886;SDS011;9069;52.044;7.472;2024-02-04T00:19:26;13.35;;;9.27;;
17886;SDS011;9069;52.044;7.472;2024-02-04T00:21:53;15.93;;;9.52;;
17886;SDS011;9069;52.044;7.472;2024-02-04T00:24:20;17.45;;;9.85;;
17886;SDS011;9069;52.044;7.472;2024-02-04T00:26:47;18.50;;;10.13;;
17886;SDS011;9069;52.044;7.472;2024-02-04T00:29:14;17.23;;;9.25;;
17886;SDS011;9069;52.044;7.472;2024-02-04T00:31:41;13.65;;;8.90;;
17886;SDS011;9069;52.044;7.472;2024-02-04T00:34:08;15.18;;;9.77;;
17886;SDS011;9069;52.044;7.472;2024-02-04T00:36:35;12.32;;;9.27;;
17886;SDS011;9069;52.044;7.472;2024-02-04T00:39:02;16.20;;;9.23;;
17886;SDS011;9069;52.044;7.472;2024-02-04T00:41:29;17.52;;;8.63;;
17886;SDS011;9069;52.044;7.472;2024-02-04T00:43:56;14.20;;;9.10;;
17886;SDS011;9069;52.044;7.472;2024-02-04T00:46:23;15.43;;;9.07;;
17886;SDS011;9069;52.044;7.472;2024-02-04T00:48:49;14.82;;;9.65;;
17886;SDS011;9069;52.044;7.472;2024-02-04T00:51:17;14.32;;;8.30;;
17886;SDS011;9069;52.044;7.472;2024-02-04T00:53:44;13.88;;;9.00;;
17886;SDS011;9069;52.044;7.472;2024-02-04T00:56:11;14.95;;;9.35;;
17886;SDS011;9069;52.044;7.472;2024-02-04T00:58:38;12.35;;;8.63;;
17886;SDS011;9069;52.044;7.472;2024-02-04T01:01:05;14.63;;;8.43;;
17886;SDS011;9069;52.044;7.472;2024-02-04T01:03:32;13.60;;;8.25;;
17886;SDS011;9069;52.044;7.472;2024-02-04T01:05:59;13.00;;;7.55;;
17886;SDS011;9069;52.044;7.472;2024-02-04T01:08:30;14.60;;;8.18;;
17886;SDS011;9069;52.044;7.472;2024-02-04T01:11:00;9.88;;;6.45;;
17886;SDS011;9069;52.044;7.472;2024-02-04T01:13:30;10.25;;;6.47;;
17886;SDS011;9069;52.044;7.472;2024-02-04T01:15:56;11.35;;;6.25;;
17886;SDS011;9069;52.044;7.472;2024-02-04T01:18:23;8.68;;;6.50;;
17886;SDS011;9069;52.044;7.472;2024-02-04T01:20:50;9.75;;;6.32;;
17886;SDS011;9069;52.044;7.472;2024-02-04T01:23:17;7.85;;;5.82;;
17886;SDS011;9069;52.044;7.472;2024-02-04T01:25:44;10.38;;;6.28;;
17886;SDS011;9069;52.044;7.472;2024-02-04T01:28:11;7.65;;;5.20;;
17886;SDS011;9069;52.044;7.472;2024-02-04T01:30:38;6.03;;;4.57;;
17886;SDS011;9069;52.044;7.472;2024-02-04T01:33:05;7.60;;;4.43;;
17886;SDS011;9069;52.044;7.472;2024-02-04T01:35:32;7.90;;;4.35;;
17886;SDS011;9069;52.044;7.472;2024-02-04T01:37:59;4.97;;;3.72;;
17886;SDS011;9069;52.044;7.472;2024-02-04T01:40:29;5.88;;;3.90;;
17886;SDS011;9069;52.044;7.472;2024-02-04T01:42:55;4.95;;;3.42;;
17886;SDS011;9069;52.044;7.472;2024-02-04T01:45:22;5.10;;;3.72;;
17886;SDS011;9069;52.044;7.472;2024-02-04T01:47:51;5.00;;;3.17;;
17886;SDS011;9069;52.044;7.472;2024-02-04T01:50:19;4.70;;;3.13;;
17886;SDS011;9069;52.044;7.472;2024-02-04T01:52:47;3.97;;;2.80;;
17886;SDS011;9069;52.044;7.472;2024-02-04T01:55:14;4.10;;;2.80;;
17886;SDS011;9069;52.044;7.472;2024-02-04T01:57:41;3.15;;;2.60;;
17886;SDS011;9069;52.044;7.472;2024-02-04T02:00:09;3.30;;;2.53;;
17886;SDS011;9069;52.044;7.472;2024-02-04T02:02:38;4.93;;;2.75;;
17886;SDS011;9069;52.044;7.472;2024-02-04T02:05:07;3.28;;;2.88;;
17886;SDS011;9069;52.044;7.472;2024-02-04T02:07:35;4.18;;;3.00;;
17886;SDS011;9069;52.044;7.472;2024-02-04T02:10:02;5.47;;;3.00;;
17886;SDS011;9069;52.044;7.472;2024-02-04T02:12:48;5.55;;;2.97;;
17886;SDS011;9069;52.044;7.472;2024-02-04T02:15:20;4.95;;;3.38;;
17886;SDS011;9069;52.044;7.472;2024-02-04T02:18:06;7.78;;;3.55;;
17886;SDS011;9069;52.044;7.472;2024-02-04T02:26:41;4.45;;;2.90;;
17886;SDS011;9069;52.044;7.472;2024-02-04T02:29:08;4.18;;;2.95;;
17886;SDS011;9069;52.044;7.472;2024-02-04T02:31:36;4.95;;;3.00;;
17886;SDS011;9069;52.044;7.472;2024-02-04T02:34:14;6.85;;;3.10;;
17886;SDS011;9069;52.044;7.472;2024-02-04T02:37:22;5.50;;;3.65;;
17886;SDS011;9069;52.044;7.472;2024-02-04T02:42:22;3.85;;;2.90;;
17886;SDS011;9069;52.044;7.472;2024-02-04T02:44:52;4.90;;;3.08;;
17886;SDS011;9069;52.044;7.472;2024-02-04T02:47:21;5.40;;;2.75;;
17886;SDS011;9069;52.044;7.472;2024-02-04T02:49:53;4.43;;;3.00;;
17886;SDS011;9069;52.044;7.472;2024-02-04T02:52:21;3.92;;;2.70;;
17886;SDS011;9069;52.044;7.472;2024-02-04T02:54:49;3.95;;;2.70;;
17886;SDS011;9069;52.044;7.472;2024-02-04T02:57:16;6.32;;;2.38;;
17886;SDS011;9069;52.044;7.472;2024-02-04T02:59:43;4.03;;;2.80;;
17886;SDS011;9069;52.044;7.472;2024-02-04T03:02:10;2.97;;;2.38;;
17886;SDS011;9069;52.044;7.472;2024-02-04T03:04:38;3.90;;;2.42;;
17886;SDS011;9069;52.044;7.472;2024-02-04T03:07:05;3.00;;;2.17;;
17886;SDS011;9069;52.044;7.472;2024-02-04T03:09:33;3.28;;;2.22;;
17886;SDS011;9069;52.044;7.472;2024-02-04T03:12:00;2.50;;;2.17;;
17886;SDS011;9069;52.044;7.472;2024-02-04T03:14:29;3.63;;;2.55;;
17886;SDS011;9069;52.044;7.472;2024-02-04T03:16:57;3.60;;;2.30;;
17886;SDS011;9069;52.044;7.472;2024-02-04T03:19:24;3.28;;;2.40;;
17886;SDS011;9069;52.044;7.472;2024-02-04T03:21:51;4.25;;;2.53;;
17886;SDS011;9069;52.044;7.472;2024-02-04T03:24:18;3.55;;;2.63;;
17886;SDS011;9069;52.044;7.472;2024-02-04T03:26:44;3.67;;;2.70;;
17886;SDS011;9069;52.044;7.472;2024-02-04T03:29:11;3.40;;;2.75;;
17886;SDS011;9069;52.044;7.472;2024-02-04T03:31:38;3.72;;;2.60;;
17886;SDS011;9069;52.044;7.472;2024-02-04T03:34:05;3.20;;;2.50;;
17886;SDS011;9069;52.044;7.472;2024-02-04T03:36:32;3.50;;;2.38;;
17886;SDS011;9069;52.044;7.472;2024-02-04T03:38:59;2.35;;;2.15;;
17886;SDS011;9069;52.044;7.472;2024-02-04T03:41:26;3.30;;;2.70;;
17886;SDS011;9069;52.044;7.472;2024-02-04T03:43:53;2.83;;;2.25;;
17886;SDS011;9069;52.044;7.472;2024-02-04T03:46:21;3.72;;;2.42;;
17886;SDS011;9069;52.044;7.472;2024-02-04T03:48:49;4.20;;;2.20;;
17886;SDS011;9069;52.044;7.472;2024-02-04T03:51:16;4.10;;;2.50;;
17886;SDS011;9069;52.044;7.472;2024-02-04T03:53:47;3.75;;;2.03;;
17886;SDS011;9069;52.044;7.472;2024-02-04T03:56:15;5.00;;;2.53;;
17886;SDS011;9069;52.044;7.472;2024-02-04T03:58:42;3.53;;;2.47;;
17886;SDS011;9069;52.044;7.472;2024-02-04T04:01:09;3.03;;;2.10;;
17886;SDS011;9069;52.044;7.472;2024-02-04T04:03:42;5.15;;;2.28;;
17886;SDS011;9069;52.044;7.472;2024-02-04T04:06:09;4.88;;;2.45;;
17886;SDS011;9069;52.044;7.472;2024-02-04T04:08:37;2.90;;;2.15;;
17886;SDS011;9069;52.044;7.472;2024-02-04T04:11:05;6.80;;;2.20;;
17886;SDS011;9069;52.044;7.472;2024-02-04T04:13:33;4.72;;;2.28;;
17886;SDS011;9069;52.044;7.472;2024-02-04T04:16:02;5.90;;;2.42;;
17886;SDS011;9069;52.044;7.472;2024-02-04T04:18:30;4.30;;;2.55;;
17886;SDS011;9069;52.044;7.472;2024-02-04T04:20:57;4.75;;;2.30;;
17886;SDS011;9069;52.044;7.472;2024-02-04T04:23:24;4.45;;;2.42;;
17886;SDS011;9069;52.044;7.472;2024-02-04T04:25:51;5.35;;;2.17;;
17886;SDS011;9069;52.044;7.472;2024-02-04T04:28:18;3.90;;;2.38;;
17886;SDS011;9069;52.044;7.472;2024-02-04T04:30:44;4.22;;;2.67;;
17886;SDS011;9069;52.044;7.472;2024-02-04T04:33:11;3.40;;;2.53;;
17886;SDS011;9069;52.044;7.472;2024-02-04T04:35:38;6.10;;;3.30;;
17886;SDS011;9069;52.044;7.472;2024-02-04T04:38:05;5.93;;;3.38;;
17886;SDS011;9069;52.044;7.472;2024-02-04T04:40:32;4.35;;;3.17;;
17886;SDS011;9069;52.044;7.472;2024-02-04T04:42:59;6.40;;;3.55;;
17886;SDS011;9069;52.044;7.472;2024-02-04T04:45:26;6.85;;;3.70;;
17886;SDS011;9069;52.044;7.472;2024-02-04T04:47:53;6.85;;;4.07;;
17886;SDS011;9069;52.044;7.472;2024-02-04T04:50:21;5.18;;;2.75;;
17886;SDS011;9069;52.044;7.472;2024-02-04T04:52:48;7.43;;;3.20;;
17886;SDS011;9069;52.044;7.472;2024-02-04T04:55:15;7.57;;;3.70;;
17886;SDS011;9069;52.044;7.472;2024-02-04T04:57:42;7.20;;;3.25;;
17886;SDS011;9069;52.044;7.472;2024-02-04T05:00:09;5.97;;;3.10;;
17886;SDS011;9069;52.044;7.472;2024-02-04T05:02:37;6.55;;;2.72;;
17886;SDS011;9069;52.044;7.472;2024-02-04T05:05:04;7.25;;;2.92;;
17886;SDS011;9069;52.044;7.472;2024-02-04T05:07:31;4.60;;;3.08;;
17886;SDS011;9069;52.044;7.472;2024-02-04T05:09:58;3.85;;;2.75;;
17886;SDS011;9069;52.044;7.472;2024-02-04T05:12:25;5.22;;;2.72;;
17886;SDS011;9069;52.044;7.472;2024-02-04T05:14:52;4.20;;;2.55;;
17886;SDS011;9069;52.044;7.472;2024-02-04T05:17:18;6.00;;;2.50;;
17886;SDS011;9069;52.044;7.472;2024-02-04T05:19:45;5.30;;;2.22;;
17886;SDS011;9069;52.044;7.472;2024-02-04T05:22:12;5.32;;;3.40;;
17886;SDS011;9069;52.044;7.472;2024-02-04T05:24:39;7.95;;;3.42;;
17886;SDS011;9069;52.044;7.472;2024-02-04T05:27:07;5.57;;;3.10;;
17886;SDS011;9069;52.044;7.472;2024-02-04T05:29:34;7.55;;;3.45;;
17886;SDS011;9069;52.044;7.472;2024-02-04T05:32:01;5.47;;;3.13;;
17886;SDS011;9069;52.044;7.472;2024-02-04T05:34:27;9.40;;;3.75;;
17886;SDS011;9069;52.044;7.472;2024-02-04T05:36:57;9.90;;;3.30;;
17886;SDS011;9069;52.044;7.472;2024-02-04T05:39:23;7.43;;;3.25;;
17886;SDS011;9069;52.044;7.472;2024-02-04T05:41:52;6.47;;;3.70;;
17886;SDS011;9069;52.044;7.472;2024-02-04T05:44:19;6.20;;;3.70;;
17886;SDS011;9069;52.044;7.472;2024-02-04T05:46:46;5.28;;;3.28;;
17886;SDS011;9069;52.044;7.472;2024-02-04T05:49:12;11.02;;;4.45;;
17886;SDS011;9069;52.044;7.472;2024-02-04T05:51:40;7.13;;;3.67;;
17886;SDS011;9069;52.044;7.472;2024-02-04T05:54:07;8.63;;;4.20;;
17886;SDS011;9069;52.044;7.472;2024-02-04T05:56:35;7.22;;;4.10;;
17886;SDS011;9069;52.044;7.472;2024-02-04T05:59:01;8.90;;;4.38;;
17886;SDS011;9069;52.044;7.472;2024-02-04T06:01:28;6.97;;;4.40;;
17886;SDS011;9069;52.044;7.472;2024-02-04T06:03:55;10.02;;;5.38;;
17886;SDS011;9069;52.044;7.472;2024-02-04T06:06:22;14.85;;;5.55;;
17886;SDS011;9069;52.044;7.472;2024-02-04T06:08:49;9.05;;;5.30;;
17886;SDS011;9069;52.044;7.472;2024-02-04T06:11:16;7.07;;;4.43;;
17886;SDS011;9069;52.044;7.472;2024-02-04T06:13:43;7.75;;;5.00;;
17886;SDS011;9069;52.044;7.472;2024-02-04T06:16:11;9.55;;;4.60;;
17886;SDS011;9069;52.044;7.472;2024-02-04T06:18:39;10.93;;;4.10;;
17886;SDS011;9069;52.044;7.472;2024-02-04T06:21:06;9.82;;;3.85;;
17886;SDS011;9069;52.044;7.472;2024-02-04T06:23:34;7.93;;;3.78;;
17886;SDS011;9069;52.044;7.472;2024-02-04T06:26:05;8.63;;;3.75;;
17886;SDS011;9069;52.044;7.472;2024-02-04T06:28:32;6.13;;;3.72;;
17886;SDS011;9069;52.044;7.472;2024-02-04T06:31:00;6.13;;;3.17;;
17886;SDS011;9069;52.044;7.472;2024-02-04T06:33:29;6.93;;;3.38;;
17886;SDS011;9069;52.044;7.472;2024-02-04T06:35:56;6.63;;;2.72;;
17886;SDS011;9069;52.044;7.472;2024-02-04T06:38:23;7.28;;;3.28;;
17886;SDS011;9069;52.044;7.472;2024-02-04T06:40:50;8.25;;;3.15;;
17886;SDS011;9069;52.044;7.472;2024-02-04T06:43:17;5.32;;;2.70;;
17886;SDS011;9069;52.044;7.472;2024-02-04T06:45:44;9.95;;;3.00;;
17886;SDS011;9069;52.044;7.472;2024-02-04T06:48:11;6.20;;;2.95;;
17886;SDS011;9069;52.044;7.472;2024-02-04T06:50:39;6.55;;;2.90;;
17886;SDS011;9069;52.044;7.472;2024-02-04T06:53:06;5.95;;;3.17;;
17886;SDS011;9069;52.044;7.472;2024-02-04T06:55:32;8.82;;;2.97;;
17886;SDS011;9069;52.044;7.472;2024-02-04T06:57:59;6.97;;;2.58;;
17886;SDS011;9069;52.044;7.472;2024-02-04T07:00:27;8.52;;;2.20;;
17886;SDS011;9069;52.044;7.472;2024-02-04T07:02:54;5.13;;;2.50;;
17886;SDS011;9069;52.044;7.472;2024-02-04T07:05:21;7.78;;;2.22;;
17886;SDS011;9069;52.044;7.472;2024-02-04T07:07:49;6.28;;;2.28;;
17886;SDS011;9069;52.044;7.472;2024-02-04T07:10:17;4.65;;;2.08;;
17886;SDS011;9069;52.044;7.472;2024-02-04T07:12:43;4.47;;;1.77;;
17886;SDS011;9069;52.044;7.472;2024-02-04T07:15:11;8.52;;;2.30;;
17886;SDS011;9069;52.044;7.472;2024-02-04T07:17:38;5.47;;;1.70;;
17886;SDS011;9069;52.044;7.472;2024-02-04T07:20:05;8.63;;;2.00;;
17886;SDS011;9069;52.044;7.472;2024-02-04T07:22:32;4.88;;;1.95;;
17886;SDS011;9069;52.044;7.472;2024-02-04T07:25:03;4.85;;;1.63;;
17886;SDS011;9069;52.044;7.472;2024-02-04T07:27:30;10.60;;;2.05;;
17886;SDS011;9069;52.044;7.472;2024-02-04T07:29:57;7.05;;;1.67;;
17886;SDS011;9069;52.044;7.472;2024-02-04T07:32:24;5.43;;;1.48;;
17886;SDS011;9069;52.044;7.472;2024-02-04T07:34:51;5.78;;;1.75;;
17886;SDS011;9069;52.044;7.472;2024-02-04T07:37:18;5.32;;;1.58;;
17886;SDS011;9069;52.044;7.472;2024-02-04T07:39:45;4.95;;;1.63;;
17886;SDS011;9069;52.044;7.472;2024-02-04T07:42:12;6.00;;;1.45;;
17886;SDS011;9069;52.044;7.472;2024-02-04T07:44:39;5.15;;;1.48;;
17886;SDS011;9069;52.044;7.472;2024-02-04T07:47:06;7.57;;;1.38;;
17886;SDS011;9069;52.044;7.472;2024-02-04T07:49:33;5.85;;;1.42;;
17886;SDS011;9069;52.044;7.472;2024-02-04T07:52:00;3.90;;;1.42;;
17886;SDS011;9069;52.044;7.472;2024-02-04T07:54:28;8.15;;;2.10;;
17886;SDS011;9069;52.044;7.472;2024-02-04T07:56:55;5.47;;;1.90;;
17886;SDS011;9069;52.044;7.472;2024-02-04T07:59:22;8.98;;;1.73;;
17886;SDS011;9069;52.044;7.472;2024-02-04T08:01:48;6.32;;;1.70;;
17886;SDS011;9069;52.044;7.472;2024-02-04T08:04:15;5.75;;;2.30;;
17886;SDS011;9069;52.044;7.472;2024-02-04T08:06:42;7.97;;;1.67;;
17886;SDS011;9069;52.044;7.472;2024-02-04T08:09:09;4.95;;;1.70;;
17886;SDS011;9069;52.044;7.472;2024-02-04T08:11:36;7.85;;;2.13;;
17886;SDS011;9069;52.044;7.472;2024-02-04T08:14:03;5.82;;;1.65;;
17886;SDS011;9069;52.044;7.472;2024-02-04T08:16:29;5.70;;;1.90;;
17886;SDS011;9069;52.044;7.472;2024-02-04T08:18:57;6.00;;;2.05;;
17886;SDS011;9069;52.044;7.472;2024-02-04T08:21:24;8.85;;;2.47;;
17886;SDS011;9069;52.044;7.472;2024-02-04T08:23:51;7.70;;;2.17;;
17886;SDS011;9069;52.044;7.472;2024-02-04T08:26:17;9.77;;;3.72;;
17886;SDS011;9069;52.044;7.472;2024-02-04T08:28:44;4.50;;;3.03;;
17886;SDS011;9069;52.044;7.472;2024-02-04T08:31:11;7.40;;;2.22;;
17886;SDS011;9069;52.044;7.472;2024-02-04T08:33:38;6.57;;;2.55;;
17886;SDS011;9069;52.044;7.472;2024-02-04T08:36:05;6.97;;;3.75;;
17886;SDS011;9069;52.044;7.472;2024-02-04T08:38:33;13.32;;;6.32;;
17886;SDS011;9069;52.044;7.472;2024-02-04T08:40:59;6.22;;;3.65;;
17886;SDS011;9069;52.044;7.472;2024-02-04T08:43:29;5.15;;;3.45;;
17886;SDS011;9069;52.044;7.472;2024-02-04T08:45:57;11.95;;;4.45;;
17886;SDS011;9069;52.044;7.472;2024-02-04T08:48:33;7.63;;;3.08;;
17886;SDS011;9069;52.044;7.472;2024-02-04T08:51:00;10.55;;;3.45;;
17886;SDS011;9069;52.044;7.472;2024-02-04T08:53:29;4.22;;;2.58;;
17886;SDS011;9069;52.044;7.472;2024-02-04T08:55:56;6.43;;;3.20;;
17886;SDS011;9069;52.044;7.472;2024-02-04T08:58:23;5.90;;;3.42;;
17886;SDS011;9069;52.044;7.472;2024-02-04T09:00:52;8.48;;;3.33;;
17886;SDS011;9069;52.044;7.472;2024-02-04T09:03:19;9.13;;;3.75;;
17886;SDS011;9069;52.044;7.472;2024-02-04T09:05:46;7.85;;;2.75;;
17886;SDS011;9069;52.044;7.472;2024-02-04T09:08:13;6.78;;;2.53;;
17886;SDS011;9069;52.044;7.472;2024-02-04T09:10:39;7.40;;;3.05;;
17886;SDS011;9069;52.044;7.472;2024-02-04T09:13:06;6.93;;;3.50;;
17886;SDS011;9069;52.044;7.472;2024-02-04T09:15:33;6.22;;;2.67;;
17886;SDS011;9069;52.044;7.472;2024-02-04T09:18:00;8.55;;;2.38;;
17886;SDS011;9069;52.044;7.472;2024-02-04T09:20:27;9.57;;;2.95;;
17886;SDS011;9069;52.044;7.472;2024-02-04T09:22:55;5.68;;;2.53;;
17886;SDS011;9069;52.044;7.472;2024-02-04T09:25:21;6.32;;;2.08;;
17886;SDS011;9069;52.044;7.472;2024-02-04T09:27:48;4.63;;;2.22;;
17886;SDS011;9069;52.044;7.472;2024-02-04T09:30:15;6.10;;;2.00;;
17886;SDS011;9069;52.044;7.472;2024-02-04T09:32:42;6.65;;;2.05;;
17886;SDS011;9069;52.044;7.472;2024-02-04T09:35:09;6.35;;;2.50;;
17886;SDS011;9069;52.044;7.472;2024-02-04T09:37:36;3.63;;;2.20;;
17886;SDS011;9069;52.044;7.472;2024-02-04T09:40:03;4.40;;;2.65;;
17886;SDS011;9069;52.044;7.472;2024-02-04T09:42:31;6.90;;;2.70;;
17886;SDS011;9069;52.044;7.472;2024-02-04T09:44:58;8.98;;;4.50;;
17886;SDS011;9069;52.044;7.472;2024-02-04T09:47:26;7.70;;;4.00;;
17886;SDS011;9069;52.044;7.472;2024-02-04T09:49:54;4.35;;;3.03;;
17886;SDS011;9069;52.044;7.472;2024-02-04T09:52:26;4.40;;;2.40;;
17886;SDS011;9069;52.044;7.472;2024-02-04T09:54:58;7.43;;;3.30;;
17886;SDS011;9069;52.044;7.472;2024-02-04T09:57:30;5.32;;;3.03;;
17886;SDS011;9069;52.044;7.472;2024-02-04T10:00:02;7.85;;;3.08;;
17886;SDS011;9069;52.044;7.472;2024-02-04T10:02:37;5.45;;;3.28;;
17886;SDS011;9069;52.044;7.472;2024-02-04T10:05:04;3.95;;;2.70;;
17886;SDS011;9069;52.044;7.472;2024-02-04T10:07:31;4.18;;;2.78;;
17886;SDS011;9069;52.044;7.472;2024-02-04T10:09:58;8.38;;;3.83;;
17886;SDS011;9069;52.044;7.472;2024-02-04T10:12:27;4.38;;;2.88;;
17886;SDS011;9069;52.044;7.472;2024-02-04T10:14:54;6.22;;;3.55;;
17886;SDS011;9069;52.044;7.472;2024-02-04T10:17:20;9.27;;;4.18;;
17886;SDS011;9069;52.044;7.472;2024-02-04T10:19:48;8.00;;;3.78;;
17886;SDS011;9069;52.044;7.472;2024-02-04T10:22:15;8.80;;;3.92;;
17886;SDS011;9069;52.044;7.472;2024-02-04T10:24:43;6.55;;;3.83;;
17886;SDS011;9069;52.044;7.472;2024-02-04T10:27:10;7.35;;;4.05;;
17886;SDS011;9069;52.044;7.472;2024-02-04T10:29:47;11.98;;;4.90;;
17886;SDS011;9069;52.044;7.472;2024-02-04T10:32:14;6.10;;;3.70;;
17886;SDS011;9069;52.044;7.472;2024-02-04T10:34:48;6.15;;;3.58;;
17886;SDS011;9069;52.044;7.472;2024-02-04T10:37:16;5.78;;;3.38;;
17886;SDS011;9069;52.044;7.472;2024-02-04T10:39:43;5.25;;;3.40;;
17886;SDS011;9069;52.044;7.472;2024-02-04T10:42:10;7.70;;;3.22;;
17886;SDS011;9069;52.044;7.472;2024-02-04T10:44:41;6.43;;;3.63;;
17886;SDS011;9069;52.044;7.472;2024-02-04T10:47:13;4.43;;;3.10;;
17886;SDS011;9069;52.044;7.472;2024-02-04T10:49:47;6.55;;;3.58;;
17886;SDS011;9069;52.044;7.472;2024-02-04T10:52:17;6.95;;;3.30;;
17886;SDS011;9069;52.044;7.472;2024-02-04T10:54:44;6.70;;;3.60;;
17886;SDS011;9069;52.044;7.472;2024-02-04T10:57:13;6.60;;;2.85;;
17886;SDS011;9069;52.044;7.472;2024-02-04T10:59:47;6.18;;;3.00;;
17886;SDS011;9069;52.044;7.472;2024-02-04T11:02:17;5.30;;;3.05;;
17886;SDS011;9069;52.044;7.472;2024-02-04T11:04:48;7.40;;;3.17;;
17886;SDS011;9069;52.044;7.472;2024-02-04T11:07:17;3.78;;;2.92;;
17886;SDS011;9069;52.044;7.472;2024-02-04T11:09:47;4.18;;;2.67;;
17886;SDS011;9069;52.044;7.472;2024-02-04T11:12:16;6.65;;;3.47;;
17886;SDS011;9069;52.044;7.472;2024-02-04T11:14:46;4.75;;;2.70;;
17886;SDS011;9069;52.044;7.472;2024-02-04T11:17:21;4.28;;;2.53;;
17886;SDS011;9069;52.044;7.472;2024-02-04T11:23:10;8.45;;;3.40;;
17886;SDS011;9069;52.044;7.472;2024-02-04T11:26:03;5.70;;;2.80;;
17886;SDS011;9069;52.044;7.472;2024-02-04T11:28:31;5.43;;;2.80;;
17886;SDS011;9069;52.044;7.472;2024-02-04T11:30:59;7.20;;;2.90;;
17886;SDS011;9069;52.044;7.472;2024-02-04T11:33:32;7.75;;;2.95;;
17886;SDS011;9069;52.044;7.472;2024-02-04T11:36:11;8.60;;;3.13;;
17886;SDS011;9069;52.044;7.472;2024-02-04T11:38:39;8.25;;;3.17;;
17886;SDS011;9069;52.044;7.472;2024-02-04T11:41:07;5.20;;;3.38;;
17886;SDS011;9069;52.044;7.472;2024-02-04T11:43:36;4.57;;;3.13;;
17886;SDS011;9069;52.044;7.472;2024-02-04T11:46:04;4.43;;;2.85;;
17886;SDS011;9069;52.044;7.472;2024-02-04T11:48:32;4.80;;;2.80;;
17886;SDS011;9069;52.044;7.472;2024-02-04T11:51:00;4.65;;;2.53;;
17886;SDS011;9069;52.044;7.472;2024-02-04T11:53:31;6.30;;;2.53;;
17886;SDS011;9069;52.044;7.472;2024-02-04T11:56:01;4.78;;;2.35;;
17886;SDS011;9069;52.044;7.472;2024-02-04T11:58:30;5.45;;;2.97;;
17886;SDS011;9069;52.044;7.472;2024-02-04T12:00:58;6.88;;;2.83;;
17886;SDS011;9069;52.044;7.472;2024-02-04T12:03:31;5.22;;;3.05;;
17886;SDS011;9069;52.044;7.472;2024-02-04T12:05:59;4.88;;;3.13;;
17886;SDS011;9069;52.044;7.472;2024-02-04T12:08:26;6.32;;;2.75;;
17886;SDS011;9069;52.044;7.472;2024-02-04T12:10:54;4.55;;;2.95;;
17886;SDS011;9069;52.044;7.472;2024-02-04T12:13:21;2.83;;;2.28;;
17886;SDS011;9069;52.044;7.472;2024-02-04T12:15:48;4.78;;;2.50;;
17886;SDS011;9069;52.044;7.472;2024-02-04T12:18:15;5.28;;;2.15;;
17886;SDS011;9069;52.044;7.472;2024-02-04T12:20:47;3.95;;;2.05;;
17886;SDS011;9069;52.044;7.472;2024-02-04T12:23:18;3.92;;;1.98;;
17886;SDS011;9069;52.044;7.472;2024-02-04T12:25:45;2.90;;;2.20;;
17886;SDS011;9069;52.044;7.472;2024-02-04T12:28:12;4.82;;;2.20;;
17886;SDS011;9069;52.044;7.472;2024-02-04T12:30:40;3.55;;;2.15;;
17886;SDS011;9069;52.044;7.472;2024-02-04T12:33:18;5.60;;;2.00;;
17886;SDS011;9069;52.044;7.472;2024-02-04T12:35:48;3.53;;;2.60;;
17886;SDS011;9069;52.044;7.472;2024-02-04T12:38:18;7.45;;;3.72;;
17886;SDS011;9069;52.044;7.472;2024-02-04T12:40:45;7.57;;;4.63;;
17886;SDS011;9069;52.044;7.472;2024-02-04T12:43:12;4.35;;;2.55;;
17886;SDS011;9069;52.044;7.472;2024-02-04T12:45:38;5.00;;;2.17;;
17886;SDS011;9069;52.044;7.472;2024-02-04T12:48:05;3.30;;;2.17;;
17886;SDS011;9069;52.044;7.472;2024-02-04T12:50:36;3.38;;;1.50;;
17886;SDS011;9069;52.044;7.472;2024-02-04T12:53:07;2.70;;;1.60;;
17886;SDS011;9069;52.044;7.472;2024-02-04T12:55:37;1.55;;;1.40;;
17886;SDS011;9069;52.044;7.472;2024-02-04T12:58:05;3.15;;;1.40;;
17886;SDS011;9069;52.044;7.472;2024-02-04T13:00:34;2.45;;;1.75;;
17886;SDS011;9069;52.044;7.472;2024-02-04T13:03:03;4.28;;;1.92;;
17886;SDS011;9069;52.044;7.472;2024-02-04T13:05:31;1.65;;;1.52;;
17886;SDS011;9069;52.044;7.472;2024-02-04T13:07:59;3.40;;;1.40;;
17886;SDS011;9069;52.044;7.472;2024-02-04T13:10:32;3.63;;;1.30;;
17886;SDS011;9069;52.044;7.472;2024-02-04T13:13:02;1.60;;;1.38;;
17886;SDS011;9069;52.044;7.472;2024-02-04T13:15:32;3.13;;;1.35;;
17886;SDS011;9069;52.044;7.472;2024-02-04T13:18:12;3.65;;;1.60;;
17886;SDS011;9069;52.044;7.472;2024-02-04T13:20:41;3.40;;;2.13;;
17886;SDS011;9069;52.044;7.472;2024-02-04T13:23:09;2.25;;;1.20;;
17886;SDS011;9069;52.044;7.472;2024-02-04T13:25:37;2.47;;;1.80;;
17886;SDS011;9069;52.044;7.472;2024-02-04T13:28:04;1.77;;;1.55;;
17886;SDS011;9069;52.044;7.472;2024-02-04T13:30:32;1.30;;;1.20;;
17886;SDS011;9069;52.044;7.472;2024-02-04T13:32:59;2.85;;;1.63;;
17886;SDS011;9069;52.044;7.472;2024-02-04T13:35:28;3.63;;;2.08;;
17886;SDS011;9069;52.044;7.472;2024-02-04T13:37:55;2.17;;;1.40;;
17886;SDS011;9069;52.044;7.472;2024-02-04T13:40:22;1.88;;;1.05;;
17886;SDS011;9069;52.044;7.472;2024-02-04T13:42:51;3.08;;;0.95;;
17886;SDS011;9069;52.044;7.472;2024-02-04T13:45:17;1.15;;;0.60;;
17886;SDS011;9069;52.044;7.472;2024-02-04T13:47:45;2.38;;;1.25;;
17886;SDS011;9069;52.044;7.472;2024-02-04T13:50:12;1.05;;;0.95;;
17886;SDS011;9069;52.044;7.472;2024-02-04T13:52:39;1.25;;;0.75;;
17886;SDS011;9069;52.044;7.472;2024-02-04T13:55:06;1.83;;;1.00;;
17886;SDS011;9069;52.044;7.472;2024-02-04T13:57:34;1.77;;;0.88;;
17886;SDS011;9069;52.044;7.472;2024-02-04T14:00:02;0.70;;;0.70;;
17886;SDS011;9069;52.044;7.472;2024-02-04T14:02:31;0.93;;;0.82;;
17886;SDS011;9069;52.044;7.472;2024-02-04T14:04:58;0.60;;;0.60;;
17886;SDS011;9069;52.044;7.472;2024-02-04T14:07:26;2.10;;;0.73;;
17886;SDS011;9069;52.044;7.472;2024-02-04T14:09:53;0.98;;;0.57;;
17886;SDS011;9069;52.044;7.472;2024-02-04T14:12:20;2.90;;;0.60;;
17886;SDS011;9069;52.044;7.472;2024-02-04T14:14:47;0.52;;;0.50;;
17886;SDS011;9069;52.044;7.472;2024-02-04T14:17:14;3.75;;;0.60;;
17886;SDS011;9069;52.044;7.472;2024-02-04T14:19:41;1.33;;;0.88;;
17886;SDS011;9069;52.044;7.472;2024-02-04T14:22:08;1.63;;;0.70;;
17886;SDS011;9069;52.044;7.472;2024-02-04T14:24:35;3.22;;;0.80;;
17886;SDS011;9069;52.044;7.472;2024-02-04T14:27:03;2.47;;;1.00;;
17886;SDS011;9069;52.044;7.472;2024-02-04T14:29:31;1.20;;;0.90;;
17886;SDS011;9069;52.044;7.472;2024-02-04T14:31:57;6.53;;;3.47;;
17886;SDS011;9069;52.044;7.472;2024-02-04T14:34:24;3.45;;;1.35;;
17886;SDS011;9069;52.044;7.472;2024-02-04T14:36:51;0.70;;;0.65;;
17886;SDS011;9069;52.044;7.472;2024-02-04T14:39:18;0.85;;;0.80;;
17886;SDS011;9069;52.044;7.472;2024-02-04T14:41:45;1.27;;;0.93;;
17886;SDS011;9069;52.044;7.472;2024-02-04T14:44:12;1.45;;;0.90;;
17886;SDS011;9069;52.044;7.472;2024-02-04T14:46:39;0.60;;;0.60;;
17886;SDS011;9069;52.044;7.472;2024-02-04T14:49:06;1.05;;;0.60;;
17886;SDS011;9069;52.044;7.472;2024-02-04T14:51:34;0.77;;;0.77;;
17886;SDS011;9069;52.044;7.472;2024-02-04T14:54:05;0.70;;;0.70;;
17886;SDS011;9069;52.044;7.472;2024-02-04T14:56:38;1.85;;;0.95;;
17886;SDS011;9069;52.044;7.472;2024-02-04T14:59:09;1.50;;;1.02;;
17886;SDS011;9069;52.044;7.472;2024-02-04T15:01:48;2.47;;;0.90;;
17886;SDS011;9069;52.044;7.472;2024-02-04T15:04:15;1.45;;;1.08;;
17886;SDS011;9069;52.044;7.472;2024-02-04T15:06:42;2.15;;;1.10;;
17886;SDS011;9069;52.044;7.472;2024-02-04T15:09:11;1.20;;;1.05;;
17886;SDS011;9069;52.044;7.472;2024-02-04T15:11:38;2.92;;;1.20;;
17886;SDS011;9069;52.044;7.472;2024-02-04T15:14:05;0.90;;;0.90;;
17886;SDS011;9069;52.044;7.472;2024-02-04T15:16:34;1.40;;;0.95;;
17886;SDS011;9069;52.044;7.472;2024-02-04T15:19:05;0.77;;;0.77;;